createdAt,value
2019-03-23T00:00:45.620Z,70.50
2019-03-23T00:01:45.608Z,73.20
2019-03-23T00:02:45.604Z,70.80
2019-03-23T00:03:45.593Z,75.80
2019-03-23T00:04:45.575Z,75.00
2019-03-23T00:05:45.559Z,71.60
2019-03-23T00:06:45.550Z,68.40
2019-03-23T00:07:45.549Z,69.30
2019-03-23T00:08:45.566Z,70.70
2019-03-23T00:09:45.524Z,71.90
2019-03-23T00:10:45.515Z,64.90
2019-03-23T00:11:45.495Z,71.20
2019-03-23T00:12:45.491Z,74.50
2019-03-23T00:13:45.478Z,68.80
2019-03-23T00:14:45.495Z,72.00
2019-03-23T00:15:45.470Z,70.50
2019-03-23T00:16:45.447Z,70.70
2019-03-23T00:17:45.430Z,73.40
2019-03-23T00:18:45.483Z,73.30
2019-03-23T00:19:45.408Z,75.30
2019-03-23T00:20:45.398Z,76.20
2019-03-23T00:21:45.395Z,71.30
2019-03-23T00:22:45.379Z,73.90
2019-03-23T00:23:45.367Z,73.70
2019-03-23T00:24:45.369Z,70.30
2019-03-23T00:25:45.345Z,73.60
2019-03-23T00:26:47.976Z,75.20
2019-03-23T00:27:45.325Z,73.50
2019-03-23T00:28:45.313Z,73.90
2019-03-23T00:29:45.308Z,73.40
2019-03-23T00:30:45.337Z,78.40
2019-03-23T00:31:45.279Z,77.80
2019-03-23T00:32:45.271Z,71.30
2019-03-23T00:33:45.255Z,73.30
2019-03-23T00:34:45.246Z,78.70
2019-03-23T00:35:45.235Z,78.00
2019-03-23T00:36:45.291Z,73.10
2019-03-23T00:37:45.216Z,75.00
2019-03-23T00:38:45.214Z,76.90
2019-03-23T00:39:45.202Z,72.60
2019-03-23T00:40:45.180Z,77.10
2019-03-23T00:41:45.175Z,78.70
2019-03-23T00:42:45.166Z,74.70
2019-03-23T00:43:45.152Z,72.20
2019-03-23T00:44:45.187Z,79.90
2019-03-23T00:45:45.128Z,75.30
2019-03-23T00:46:45.114Z,77.30
2019-03-23T00:47:45.106Z,75.10
2019-03-23T00:48:45.098Z,79.00
2019-03-23T00:49:45.147Z,83.20
2019-03-23T00:50:45.075Z,81.80
2019-03-23T00:51:45.064Z,79.90
2019-03-23T00:52:45.099Z,71.80
2019-03-23T00:53:45.044Z,75.40
2019-03-23T00:54:45.031Z,71.40
2019-03-23T00:55:45.023Z,75.70
2019-03-23T00:56:45.017Z,71.80
2019-03-23T00:57:45.004Z,72.40
2019-03-23T00:58:44.989Z,75.70
2019-03-23T00:59:44.977Z,76.70
2019-03-23T01:00:44.969Z,80.20
2019-03-23T01:01:44.970Z,79.30
2019-03-23T01:02:44.942Z,75.00
2019-03-23T01:03:44.980Z,79.60
2019-03-23T01:04:44.923Z,79.80
2019-03-23T01:05:44.907Z,75.40
2019-03-23T01:06:52.009Z,76.40
2019-03-23T01:07:45.890Z,79.10
2019-03-23T01:08:44.879Z,73.40
2019-03-23T01:09:44.915Z,77.80
2019-03-23T01:10:44.851Z,76.60
2019-03-23T01:11:44.849Z,79.40
2019-03-23T01:12:44.846Z,80.20
2019-03-23T01:13:44.843Z,78.90
2019-03-23T01:14:44.966Z,76.50
2019-03-23T01:15:44.806Z,76.70
2019-03-23T01:16:44.791Z,79.80
2019-03-23T01:17:44.776Z,82.60
2019-03-23T01:18:44.791Z,79.80
2019-03-23T01:19:44.758Z,87.20
2019-03-23T01:20:49.618Z,78.60
2019-03-23T01:21:45.738Z,79.80
2019-03-23T01:22:44.722Z,75.70
2019-03-23T01:23:44.829Z,86.90
2019-03-23T01:24:44.699Z,80.10
2019-03-23T01:25:44.693Z,78.40
2019-03-23T01:26:44.677Z,79.70
2019-03-23T01:27:44.675Z,77.30
2019-03-23T01:28:44.661Z,76.30
2019-03-23T01:29:44.712Z,76.50
2019-03-23T01:30:44.634Z,75.10
2019-03-23T01:31:44.623Z,75.60
2019-03-23T01:32:44.613Z,82.50
2019-03-23T01:33:44.607Z,75.70
2019-03-23T01:34:44.665Z,81.90
2019-03-23T01:35:44.583Z,88.70
2019-03-23T01:36:44.570Z,77.80
2019-03-23T01:37:44.564Z,80.20
2019-03-23T01:38:44.551Z,80.20
2019-03-23T01:39:44.543Z,81.50
2019-03-23T01:40:44.573Z,83.60
2019-03-23T01:41:44.563Z,81.80
2019-03-23T01:42:44.506Z,87.90
2019-03-23T01:43:44.494Z,83.20
2019-03-23T01:44:44.483Z,96.00
2019-03-23T01:45:44.485Z,88.00
2019-03-23T01:46:44.469Z,98.00
2019-03-23T01:47:44.448Z,88.80
2019-03-23T01:48:44.442Z,88.60
2019-03-23T01:49:44.431Z,85.30
2019-03-23T01:50:44.458Z,89.20
2019-03-23T01:51:44.410Z,92.10
2019-03-23T01:52:44.392Z,92.80
2019-03-23T01:53:44.388Z,90.40
2019-03-23T01:54:44.374Z,86.50
2019-03-23T01:55:44.360Z,84.30
2019-03-23T01:56:44.401Z,89.80
2019-03-23T01:57:44.343Z,81.00
2019-03-23T01:58:44.334Z,81.20
2019-03-23T01:59:44.315Z,84.60
2019-03-23T02:00:44.317Z,89.60
2019-03-23T02:01:44.347Z,86.60
2019-03-23T02:02:44.287Z,102.80
2019-03-23T02:03:44.272Z,91.20
2019-03-23T02:04:44.260Z,101.80
2019-03-23T02:05:44.253Z,102.10
2019-03-23T02:06:44.250Z,103.20
2019-03-23T02:07:44.235Z,96.00
2019-03-23T02:08:44.265Z,106.60
2019-03-23T02:09:44.207Z,90.30
2019-03-23T02:10:44.231Z,100.70
2019-03-23T02:11:44.187Z,104.10
2019-03-23T02:12:44.177Z,93.30
2019-03-23T02:13:44.210Z,102.10
2019-03-23T02:14:44.151Z,97.70
2019-03-23T02:15:44.144Z,100.90
2019-03-23T02:16:44.132Z,98.60
2019-03-23T02:17:44.116Z,92.00
2019-03-23T02:18:44.195Z,105.00
2019-03-23T02:19:44.099Z,95.30
2019-03-23T02:20:44.091Z,98.30
2019-03-23T02:21:44.074Z,95.80
2019-03-23T02:22:44.064Z,102.80
2019-03-23T02:23:44.061Z,110.40
2019-03-23T02:24:44.068Z,97.10
2019-03-23T02:25:44.035Z,101.50
2019-03-23T02:26:44.024Z,102.00
2019-03-23T02:27:44.020Z,102.40
2019-03-23T02:28:44.002Z,108.10
2019-03-23T02:29:44.039Z,105.70
2019-03-23T02:30:43.983Z,115.40
2019-03-23T02:31:43.980Z,96.90
2019-03-23T02:32:44.039Z,120.70
2019-03-23T02:33:43.950Z,117.80
2019-03-23T02:34:43.941Z,113.30
2019-03-23T02:35:43.950Z,109.90
2019-03-23T02:36:43.916Z,109.70
2019-03-23T02:37:43.915Z,106.00
2019-03-23T02:38:43.895Z,95.20
2019-03-23T02:39:43.932Z,101.80
2019-03-23T02:40:43.887Z,97.10
2019-03-23T02:41:43.854Z,92.80
2019-03-23T02:42:43.911Z,103.30
2019-03-23T02:43:43.833Z,105.40
2019-03-23T02:44:43.915Z,99.40
2019-03-23T02:45:43.812Z,99.90
2019-03-23T02:46:43.804Z,92.70
2019-03-23T02:47:43.791Z,100.90
2019-03-23T02:48:43.788Z,110.80
2019-03-23T02:49:43.776Z,115.60
2019-03-23T02:50:43.845Z,101.10
2019-03-23T02:51:43.745Z,103.10
2019-03-23T02:52:43.733Z,112.40
2019-03-23T02:53:43.723Z,111.90
2019-03-23T02:54:43.717Z,130.40
2019-03-23T02:55:43.759Z,167.80
2019-03-23T02:56:43.697Z,196.40
2019-03-23T02:57:43.742Z,121.50
2019-03-23T02:58:43.686Z,163.90
2019-03-23T02:59:43.657Z,133.20
2019-03-23T03:00:43.648Z,143.10
2019-03-23T03:01:43.637Z,160.20
2019-03-23T03:02:43.625Z,147.70
2019-03-23T03:03:43.661Z,171.10
2019-03-23T03:04:43.609Z,169.70
2019-03-23T03:05:43.599Z,124.60
2019-03-23T03:06:43.581Z,176.20
2019-03-23T03:07:44.117Z,231.20
2019-03-23T03:08:43.562Z,138.10
2019-03-23T03:09:43.556Z,126.90
2019-03-23T03:10:43.539Z,160.10
2019-03-23T03:11:43.535Z,179.50
2019-03-23T03:12:43.584Z,120.60
2019-03-23T03:13:43.510Z,163.00
2019-03-23T03:14:43.496Z,132.40
2019-03-23T03:15:43.497Z,125.50
2019-03-23T03:16:43.481Z,115.60
2019-03-23T03:17:43.507Z,114.30
2019-03-23T03:18:44.930Z,114.50
2019-03-23T03:19:43.473Z,108.70
2019-03-23T03:20:43.437Z,104.20
2019-03-23T03:21:43.417Z,103.90
2019-03-23T03:22:43.431Z,107.10
2019-03-23T03:23:43.465Z,101.70
2019-03-23T03:24:43.385Z,104.00
2019-03-23T03:25:43.378Z,104.50
2019-03-23T03:26:43.361Z,102.10
2019-03-23T03:27:43.422Z,102.50
2019-03-23T03:28:43.338Z,104.80
2019-03-23T03:29:43.332Z,170.80
2019-03-23T03:30:43.325Z,105.80
2019-03-23T03:31:43.304Z,109.80
2019-03-23T03:32:43.343Z,101.70
2019-03-23T03:33:43.281Z,98.90
2019-03-23T03:34:43.289Z,99.50
2019-03-23T03:35:43.262Z,95.60
2019-03-23T03:36:43.256Z,98.80
2019-03-23T03:37:55.768Z,95.90
2019-03-23T03:38:44.233Z,88.80
2019-03-23T03:39:43.225Z,88.90
2019-03-23T03:40:43.213Z,94.10
2019-03-23T03:41:43.207Z,185.40
2019-03-23T03:42:43.246Z,113.30
2019-03-23T03:43:43.225Z,112.60
2019-03-23T03:44:43.165Z,102.40
2019-03-23T03:45:43.158Z,131.30
2019-03-23T03:46:43.156Z,110.40
2019-03-23T03:47:43.176Z,139.20
2019-03-23T03:48:43.129Z,132.80
2019-03-23T03:49:43.105Z,121.00
2019-03-23T03:50:43.103Z,106.00
2019-03-23T03:51:43.087Z,160.30
2019-03-23T03:52:43.115Z,117.90
2019-03-23T03:53:43.067Z,98.30
2019-03-23T03:54:43.054Z,154.90
2019-03-23T03:55:43.050Z,109.90
2019-03-23T03:56:43.034Z,146.40
2019-03-23T03:57:43.023Z,156.40
2019-03-23T03:58:43.056Z,120.60
2019-03-23T03:59:50.588Z,120.20
2019-03-23T04:00:42.992Z,95.50
2019-03-23T04:01:42.974Z,101.90
2019-03-23T04:02:42.969Z,83.20
2019-03-23T04:03:43.025Z,84.10
2019-03-23T04:04:42.988Z,77.70
2019-03-23T04:05:42.931Z,82.60
2019-03-23T04:06:42.917Z,79.40
2019-03-23T04:07:42.913Z,77.60
2019-03-23T04:08:42.906Z,75.10
2019-03-23T04:09:42.982Z,71.30
2019-03-23T04:10:42.873Z,74.10
2019-03-23T04:11:42.866Z,77.30
2019-03-23T04:12:42.856Z,75.60
2019-03-23T04:13:42.841Z,78.30
2019-03-23T04:14:42.836Z,77.90
2019-03-23T04:15:42.831Z,86.50
2019-03-23T04:16:42.811Z,72.50
2019-03-23T04:17:42.803Z,73.60
2019-03-23T04:18:42.793Z,71.40
2019-03-23T04:19:42.781Z,70.10
2019-03-23T04:20:42.833Z,69.20
2019-03-23T04:21:42.755Z,67.60
2019-03-23T04:22:42.757Z,67.60
2019-03-23T04:23:42.746Z,63.10
2019-03-23T04:24:42.726Z,74.60
2019-03-23T04:25:42.718Z,71.40
2019-03-23T04:26:42.768Z,63.10
2019-03-23T04:27:42.692Z,73.80
2019-03-23T04:28:42.679Z,73.90
2019-03-23T04:29:42.698Z,60.70
2019-03-23T04:30:42.657Z,68.50
2019-03-23T04:31:42.652Z,64.30
2019-03-23T04:32:42.682Z,67.10
2019-03-23T04:33:42.619Z,65.30
2019-03-23T04:34:42.654Z,65.10
2019-03-23T04:35:42.603Z,61.20
2019-03-23T04:36:42.592Z,55.50
2019-03-23T04:37:42.625Z,55.90
2019-03-23T04:38:42.566Z,58.00
2019-03-23T04:39:42.554Z,63.30
2019-03-23T04:40:42.541Z,65.70
2019-03-23T04:41:42.596Z,60.40
2019-03-23T04:42:42.575Z,56.80
2019-03-23T04:43:42.515Z,88.80
2019-03-23T04:44:42.495Z,62.70
2019-03-23T04:45:42.555Z,62.40
2019-03-23T04:46:44.038Z,62.60
2019-03-23T04:47:42.524Z,61.50
2019-03-23T04:48:42.456Z,61.90
2019-03-23T04:49:42.451Z,62.10
2019-03-23T04:50:42.429Z,75.40
2019-03-23T04:51:42.460Z,69.80
2019-03-23T04:52:42.458Z,58.40
2019-03-23T04:53:42.418Z,59.40
2019-03-23T04:54:42.389Z,54.20
2019-03-23T04:55:42.374Z,57.50
2019-03-23T04:56:42.368Z,57.30
2019-03-23T04:57:42.371Z,63.00
2019-03-23T04:58:42.341Z,55.00
2019-03-23T04:59:42.333Z,55.30
2019-03-23T05:00:42.320Z,54.90
2019-03-23T05:01:42.310Z,51.90
2019-03-23T05:02:42.379Z,59.10
2019-03-23T05:03:42.293Z,57.20
2019-03-23T05:04:42.282Z,56.10
2019-03-23T05:05:42.271Z,53.80
2019-03-23T05:06:42.637Z,52.10
2019-03-23T05:07:42.248Z,50.90
2019-03-23T05:08:42.321Z,49.70
2019-03-23T05:09:42.224Z,51.70
2019-03-23T05:10:42.218Z,58.30
2019-03-23T05:11:42.201Z,57.50
2019-03-23T05:12:42.191Z,52.10
2019-03-23T05:13:42.175Z,48.40
2019-03-23T05:14:42.178Z,49.00
2019-03-23T05:15:42.159Z,54.50
2019-03-23T05:16:42.149Z,55.90
2019-03-23T05:17:42.137Z,59.30
2019-03-23T05:18:42.141Z,53.70
2019-03-23T05:19:42.113Z,51.90
2019-03-23T05:20:42.098Z,56.00
2019-03-23T05:21:42.088Z,47.60
2019-03-23T05:22:42.103Z,48.00
2019-03-23T05:23:42.094Z,49.40
2019-03-23T05:24:42.053Z,49.90
2019-03-23T05:25:42.047Z,51.90
2019-03-23T05:26:42.043Z,46.30
2019-03-23T05:27:42.027Z,48.00
2019-03-23T05:28:42.078Z,46.00
2019-03-23T05:29:42.000Z,51.30
2019-03-23T05:30:41.992Z,53.50
2019-03-23T05:31:41.980Z,79.10
2019-03-23T05:32:41.970Z,52.80
2019-03-23T05:33:41.958Z,67.00
2019-03-23T05:34:41.957Z,72.60
2019-03-23T05:35:41.938Z,52.80
2019-03-23T05:36:41.921Z,52.20
2019-03-23T05:37:41.914Z,53.40
2019-03-23T05:38:44.681Z,53.10
2019-03-23T05:39:42.156Z,52.30
2019-03-23T05:40:41.883Z,47.80
2019-03-23T05:41:41.872Z,50.50
2019-03-23T05:42:41.855Z,48.90
2019-03-23T05:43:41.845Z,49.50
2019-03-23T05:44:41.898Z,44.00
2019-03-23T05:45:41.827Z,44.90
2019-03-23T05:46:41.823Z,43.30
2019-03-23T05:47:41.806Z,48.50
2019-03-23T05:48:41.788Z,44.10
2019-03-23T05:49:41.778Z,43.70
2019-03-23T05:50:41.829Z,42.90
2019-03-23T05:51:41.760Z,45.50
2019-03-23T05:52:41.752Z,42.00
2019-03-23T05:53:41.760Z,42.80
2019-03-23T05:54:41.727Z,42.10
2019-03-23T05:55:41.715Z,44.80
2019-03-23T05:56:41.752Z,41.80
2019-03-23T05:57:41.689Z,45.80
2019-03-23T05:58:41.684Z,42.70
2019-03-23T05:59:41.673Z,45.90
2019-03-23T06:00:41.655Z,40.90
2019-03-23T06:01:41.661Z,93.70
2019-03-23T06:02:41.633Z,55.30
2019-03-23T06:03:41.627Z,47.40
2019-03-23T06:04:41.615Z,44.50
2019-03-23T06:05:41.605Z,43.40
2019-03-23T06:06:41.662Z,44.60
2019-03-23T06:07:41.586Z,43.80
2019-03-23T06:08:41.571Z,43.20
2019-03-23T06:09:41.562Z,44.40
2019-03-23T06:10:41.545Z,43.60
2019-03-23T06:11:41.587Z,41.00
2019-03-23T06:12:41.524Z,42.20
2019-03-23T06:13:41.516Z,42.10
2019-03-23T06:14:41.583Z,40.60
2019-03-23T06:15:41.492Z,43.50
2019-03-23T06:16:41.494Z,41.40
2019-03-23T06:17:41.470Z,41.50
2019-03-23T06:18:41.458Z,40.20
2019-03-23T06:19:41.452Z,41.70
2019-03-23T06:20:41.473Z,40.80
2019-03-23T06:21:42.771Z,42.40
2019-03-23T06:22:41.413Z,42.10
2019-03-23T06:23:41.454Z,43.10
2019-03-23T06:24:41.440Z,41.50
2019-03-23T06:25:41.389Z,41.80
2019-03-23T06:26:41.370Z,41.70
2019-03-23T06:27:41.408Z,40.80
2019-03-23T06:28:41.422Z,40.80
2019-03-23T06:29:41.341Z,41.70
2019-03-23T06:30:41.332Z,40.90
2019-03-23T06:31:41.319Z,39.10
2019-03-23T06:32:41.305Z,39.50
2019-03-23T06:33:41.296Z,40.40
2019-03-23T06:34:41.352Z,40.80
2019-03-23T06:35:41.297Z,60.40
2019-03-23T06:36:41.272Z,76.00
2019-03-23T06:37:41.255Z,46.70
2019-03-23T06:38:41.242Z,44.20
2019-03-23T06:39:41.232Z,41.20
2019-03-23T06:40:41.265Z,46.40
2019-03-23T06:41:41.208Z,41.00
2019-03-23T06:42:41.203Z,43.60
2019-03-23T06:43:41.187Z,44.60
2019-03-23T06:44:41.223Z,43.60
2019-03-23T06:45:41.230Z,42.60
2019-03-23T06:46:41.158Z,42.50
2019-03-23T06:47:41.139Z,41.60
2019-03-23T06:48:41.136Z,44.00
2019-03-23T06:49:41.130Z,40.80
2019-03-23T06:50:41.115Z,41.20
2019-03-23T06:51:41.129Z,44.20
2019-03-23T06:52:41.095Z,41.10
2019-03-23T06:53:41.082Z,45.00
2019-03-23T06:54:41.104Z,41.70
2019-03-23T06:55:41.054Z,41.40
2019-03-23T06:56:41.051Z,39.90
2019-03-23T06:57:41.046Z,40.90
2019-03-23T06:58:41.029Z,40.90
2019-03-23T06:59:41.019Z,40.90
2019-03-23T07:00:41.010Z,43.90
2019-03-23T07:01:41.014Z,41.80
2019-03-23T07:02:40.979Z,42.90
2019-03-23T07:03:40.970Z,42.30
2019-03-23T07:04:40.983Z,39.50
2019-03-23T07:05:40.952Z,40.90
2019-03-23T07:06:40.932Z,41.90
2019-03-23T07:07:40.962Z,43.40
2019-03-23T07:08:40.914Z,41.50
2019-03-23T07:09:40.906Z,41.30
2019-03-23T07:10:40.895Z,41.70
2019-03-23T07:11:40.878Z,44.70
2019-03-23T07:12:40.866Z,39.40
2019-03-23T07:13:40.926Z,40.40
2019-03-23T07:14:40.852Z,44.80
2019-03-23T07:15:40.838Z,45.20
2019-03-23T07:16:40.828Z,44.60
2019-03-23T07:17:40.814Z,43.60
2019-03-23T07:18:40.806Z,42.30
2019-03-23T07:19:40.839Z,39.50
2019-03-23T07:20:40.789Z,43.70
2019-03-23T07:21:40.785Z,43.00
2019-03-23T07:22:40.760Z,41.40
2019-03-23T07:23:40.754Z,41.90
2019-03-23T07:24:40.734Z,39.70
2019-03-23T07:25:40.732Z,41.20
2019-03-23T07:26:40.758Z,39.80
2019-03-23T07:27:40.705Z,43.10
2019-03-23T07:28:40.693Z,42.30
2019-03-23T07:29:40.684Z,43.00
2019-03-23T07:30:40.804Z,43.80
2019-03-23T07:31:40.698Z,41.80
2019-03-23T07:32:41.493Z,43.00
2019-03-23T07:33:40.687Z,40.70
2019-03-23T07:34:40.634Z,40.70
2019-03-23T07:35:40.637Z,41.10
2019-03-23T07:36:40.652Z,40.30
2019-03-23T07:37:40.649Z,41.40
2019-03-23T07:38:40.594Z,42.70
2019-03-23T07:39:40.572Z,39.40
2019-03-23T07:40:40.626Z,39.90
2019-03-23T07:41:40.605Z,41.00
2019-03-23T07:42:40.552Z,41.50
2019-03-23T07:43:40.533Z,41.10
2019-03-23T07:44:40.520Z,39.20
2019-03-23T07:45:40.517Z,41.60
2019-03-23T07:46:40.503Z,38.40
2019-03-23T07:47:40.498Z,42.40
2019-03-23T07:48:40.478Z,38.60
2019-03-23T07:49:40.475Z,43.80
2019-03-23T07:50:40.504Z,40.70
2019-03-23T07:51:40.442Z,36.70
2019-03-23T07:52:40.546Z,40.50
2019-03-23T07:53:40.434Z,40.80
2019-03-23T07:54:40.414Z,39.60
2019-03-23T07:55:40.401Z,42.10
2019-03-23T07:56:40.388Z,44.20
2019-03-23T07:57:40.379Z,42.40
2019-03-23T07:58:40.377Z,43.40
2019-03-23T07:59:40.358Z,40.10
2019-03-23T08:00:41.079Z,41.20
2019-03-23T08:01:40.330Z,40.70
2019-03-23T08:02:40.326Z,39.60
2019-03-23T08:03:40.338Z,38.70
2019-03-23T08:04:40.296Z,39.30
2019-03-23T08:05:40.288Z,39.00
2019-03-23T08:06:40.278Z,38.90
2019-03-23T08:07:40.268Z,36.40
2019-03-23T08:08:40.256Z,36.50
2019-03-23T08:09:40.284Z,38.70
2019-03-23T08:10:40.231Z,39.70
2019-03-23T08:11:40.219Z,39.00
2019-03-23T08:12:40.209Z,39.20
2019-03-23T08:13:40.203Z,37.20
2019-03-23T08:14:40.189Z,37.00
2019-03-23T08:15:40.185Z,38.10
2019-03-23T08:16:40.166Z,34.60
2019-03-23T08:17:40.157Z,35.90
2019-03-23T08:18:40.152Z,35.00
2019-03-23T08:19:40.141Z,36.10
2019-03-23T08:20:40.138Z,39.40
2019-03-23T08:21:40.114Z,39.40
2019-03-23T08:22:40.163Z,39.00
2019-03-23T08:23:40.095Z,35.10
2019-03-23T08:24:40.081Z,34.60
2019-03-23T08:25:40.075Z,36.10
2019-03-23T08:26:40.061Z,37.20
2019-03-23T08:27:41.674Z,37.20
2019-03-23T08:28:40.032Z,36.70
2019-03-23T08:29:40.046Z,35.30
2019-03-23T08:30:40.027Z,37.30
2019-03-23T08:31:40.002Z,32.90
2019-03-23T08:32:40.045Z,36.50
2019-03-23T08:33:39.982Z,35.30
2019-03-23T08:34:39.970Z,38.00
2019-03-23T08:35:39.970Z,34.80
2019-03-23T08:36:39.962Z,35.90
2019-03-23T08:37:39.938Z,35.30
2019-03-23T08:38:39.928Z,34.80
2019-03-23T08:39:48.132Z,36.50
2019-03-23T08:40:40.924Z,35.80
2019-03-23T08:41:39.895Z,38.20
2019-03-23T08:42:39.885Z,33.80
2019-03-23T08:43:39.876Z,38.80
2019-03-23T08:44:39.866Z,34.70
2019-03-23T08:45:39.864Z,34.90
2019-03-23T08:46:39.867Z,36.20
2019-03-23T08:47:39.841Z,37.10
2019-03-23T08:48:39.818Z,35.00
2019-03-23T08:49:39.806Z,37.30
2019-03-23T08:50:39.791Z,33.90
2019-03-23T08:51:39.784Z,35.30
2019-03-23T08:52:39.784Z,36.20
2019-03-23T08:53:39.771Z,33.40
2019-03-23T08:54:39.756Z,35.10
2019-03-23T08:55:39.738Z,32.80
2019-03-23T08:56:39.756Z,34.70
2019-03-23T08:57:41.429Z,35.50
2019-03-23T08:58:39.711Z,37.00
2019-03-23T08:59:39.696Z,32.50
2019-03-23T09:00:39.684Z,34.40
2019-03-23T09:01:39.721Z,32.70
2019-03-23T09:02:39.666Z,34.10
2019-03-23T09:03:39.651Z,33.90
2019-03-23T09:04:39.647Z,35.30
2019-03-23T09:05:39.647Z,35.20
2019-03-23T09:06:39.619Z,33.10
2019-03-23T09:07:39.623Z,33.00
2019-03-23T09:08:39.601Z,33.80
2019-03-23T09:09:39.587Z,34.40
2019-03-23T09:10:39.584Z,36.10
2019-03-23T09:11:39.578Z,31.90
2019-03-23T09:12:39.605Z,33.90
2019-03-23T09:13:40.798Z,34.20
2019-03-23T09:14:39.536Z,34.40
2019-03-23T09:15:39.524Z,35.70
2019-03-23T09:16:39.520Z,34.90
2019-03-23T09:17:39.498Z,32.80
2019-03-23T09:18:39.497Z,35.50
2019-03-23T09:19:39.503Z,33.50
2019-03-23T09:20:39.476Z,32.70
2019-03-23T09:21:39.462Z,33.20
2019-03-23T09:22:39.464Z,32.60
2019-03-23T09:23:39.461Z,35.30
2019-03-23T09:24:39.428Z,32.80
2019-03-23T09:25:39.417Z,34.10
2019-03-23T09:26:39.406Z,33.30
2019-03-23T09:27:39.394Z,32.00
2019-03-23T09:28:39.397Z,32.20
2019-03-23T09:29:39.377Z,32.40
2019-03-23T09:30:39.366Z,32.40
2019-03-23T09:31:39.356Z,31.90
2019-03-23T09:32:39.351Z,32.80
2019-03-23T09:33:39.345Z,32.70
2019-03-23T09:34:39.324Z,35.40
2019-03-23T09:35:39.659Z,31.50
2019-03-23T09:36:41.303Z,31.70
2019-03-23T09:37:39.287Z,34.40
2019-03-23T09:38:39.290Z,33.70
2019-03-23T09:39:39.272Z,31.80
2019-03-23T09:40:39.257Z,31.40
2019-03-23T09:41:39.246Z,32.70
2019-03-23T09:42:39.238Z,34.60
2019-03-23T09:43:39.227Z,31.80
2019-03-23T09:44:39.232Z,31.50
2019-03-23T09:45:39.221Z,32.10
2019-03-23T09:46:39.196Z,31.40
2019-03-23T09:47:39.180Z,31.50
2019-03-23T09:48:39.168Z,33.30
2019-03-23T09:49:39.164Z,31.90
2019-03-23T09:50:39.141Z,32.50
2019-03-23T09:51:39.141Z,32.60
2019-03-23T09:52:39.119Z,32.10
2019-03-23T09:53:39.110Z,32.10
2019-03-23T09:54:39.100Z,32.70
2019-03-23T09:55:39.087Z,32.20
2019-03-23T09:56:39.123Z,32.50
2019-03-23T09:57:39.083Z,31.60
2019-03-23T09:58:39.063Z,32.50
2019-03-23T09:59:39.043Z,31.70
2019-03-23T10:01:55.075Z,30.60
2019-03-23T10:02:55.056Z,31.10
2019-03-23T10:03:55.782Z,31.30
2019-03-23T10:04:55.041Z,30.80
2019-03-23T10:05:55.030Z,30.40
2019-03-23T10:06:55.026Z,30.40
2019-03-23T10:07:55.002Z,30.70
2019-03-23T10:08:55.014Z,30.60
2019-03-23T10:09:54.987Z,33.10
2019-03-23T10:10:54.976Z,30.10
2019-03-23T10:11:54.977Z,32.00
2019-03-23T10:12:54.955Z,30.60
2019-03-23T10:13:54.969Z,31.80
2019-03-23T10:14:54.937Z,31.60
2019-03-23T10:15:54.920Z,32.50
2019-03-23T10:16:54.947Z,31.80
2019-03-23T10:17:54.921Z,31.40
2019-03-23T10:18:54.905Z,31.10
2019-03-23T10:19:54.879Z,31.60
2019-03-23T10:20:54.863Z,31.90
2019-03-23T10:21:54.853Z,32.10
2019-03-23T10:22:54.860Z,29.90
2019-03-23T10:23:54.835Z,30.50
2019-03-23T10:24:54.826Z,32.00
2019-03-23T10:25:54.812Z,32.00
2019-03-23T10:26:54.805Z,32.50
2019-03-23T10:27:54.827Z,33.30
2019-03-23T10:28:54.794Z,35.00
2019-03-23T10:29:54.768Z,32.10
2019-03-23T10:30:54.763Z,32.90
2019-03-23T10:31:55.758Z,30.50
2019-03-23T10:32:54.736Z,33.40
2019-03-23T10:33:54.864Z,31.60
2019-03-23T10:34:54.796Z,32.20
2019-03-23T10:35:54.704Z,32.80
2019-03-23T10:36:54.698Z,33.10
2019-03-23T10:37:54.687Z,32.10
2019-03-23T10:38:54.696Z,31.20
2019-03-23T10:39:54.674Z,32.60
2019-03-23T10:40:54.781Z,30.10
2019-03-23T10:41:54.638Z,30.80
2019-03-23T10:42:54.867Z,31.70
2019-03-23T10:43:55.383Z,33.00
2019-03-23T10:44:54.652Z,31.80
2019-03-23T10:45:54.597Z,32.60
2019-03-23T10:46:54.591Z,33.80
2019-03-23T10:48:54.569Z,34.10
2019-03-23T10:49:54.597Z,32.10
2019-03-23T10:50:54.549Z,32.30
2019-03-23T10:51:54.541Z,31.80
2019-03-23T10:52:54.528Z,32.50
2019-03-23T10:53:54.519Z,35.80
2019-03-23T10:54:54.509Z,32.10
2019-03-23T10:55:54.503Z,33.10
2019-03-23T10:56:54.513Z,33.00
2019-03-23T10:57:54.473Z,31.90
2019-03-23T10:58:54.464Z,33.30
2019-03-23T10:59:54.456Z,31.90
2019-03-23T11:00:54.480Z,32.90
2019-03-23T11:01:54.565Z,34.10
2019-03-23T11:02:54.416Z,34.20
2019-03-23T11:03:54.406Z,33.30
2019-03-23T11:04:54.400Z,34.10
2019-03-23T11:05:54.388Z,34.60
2019-03-23T11:06:54.384Z,33.80
2019-03-23T11:07:54.368Z,34.10
2019-03-23T11:08:54.352Z,34.20
2019-03-23T11:09:54.339Z,36.60
2019-03-23T11:10:54.329Z,35.90
2019-03-23T11:11:54.330Z,34.90
2019-03-23T11:12:54.317Z,36.00
2019-03-23T11:13:54.303Z,34.70
2019-03-23T11:14:54.291Z,34.70
2019-03-23T11:15:54.277Z,37.30
2019-03-23T11:16:54.283Z,37.00
2019-03-23T11:17:54.264Z,37.60
2019-03-23T11:18:54.243Z,36.90
2019-03-23T11:19:54.232Z,37.70
2019-03-23T11:20:54.224Z,37.80
2019-03-23T11:21:54.247Z,40.00
2019-03-23T11:22:54.207Z,40.40
2019-03-23T11:23:54.197Z,38.70
2019-03-23T11:24:54.186Z,40.40
2019-03-23T11:25:54.177Z,39.50
2019-03-23T11:26:54.164Z,41.10
2019-03-23T11:27:54.167Z,39.80
2019-03-23T11:28:54.141Z,41.20
2019-03-23T11:29:54.132Z,40.40
2019-03-23T11:30:54.115Z,42.30
2019-03-23T11:31:54.111Z,42.70
2019-03-23T11:32:54.108Z,42.20
2019-03-23T11:33:54.090Z,41.70
2019-03-23T11:34:54.090Z,40.70
2019-03-23T11:35:58.080Z,41.90
2019-03-23T11:36:54.051Z,40.50
2019-03-23T11:37:54.266Z,39.70
2019-03-23T11:38:54.047Z,41.00
2019-03-23T11:39:54.019Z,41.60
2019-03-23T11:40:55.353Z,40.70
2019-03-23T11:41:54.000Z,42.10
2019-03-23T11:42:53.993Z,42.50
2019-03-23T11:43:53.978Z,43.30
2019-03-23T11:44:54.047Z,43.00
2019-03-23T11:45:53.961Z,43.90
2019-03-23T11:46:53.961Z,45.20
2019-03-23T11:47:53.946Z,45.60
2019-03-23T11:48:53.936Z,45.00
2019-03-23T11:49:53.933Z,43.30
2019-03-23T11:50:53.923Z,42.90
2019-03-23T11:51:53.905Z,42.20
2019-03-23T11:52:53.883Z,39.70
2019-03-23T11:53:53.885Z,39.30
2019-03-23T11:54:53.867Z,40.40
2019-03-23T11:55:53.854Z,41.40
2019-03-23T11:56:53.849Z,38.60
2019-03-23T11:57:53.829Z,38.10
2019-03-23T11:58:54.134Z,37.40
2019-03-23T11:59:53.856Z,38.50
2019-03-23T12:00:53.808Z,37.70
2019-03-23T12:01:53.790Z,37.30
2019-03-23T12:02:53.775Z,37.50
2019-03-23T12:03:53.768Z,38.00
2019-03-23T12:04:53.831Z,37.70
2019-03-23T12:05:53.742Z,38.60
2019-03-23T12:06:53.745Z,36.30
2019-03-23T12:07:53.726Z,38.20
2019-03-23T12:08:53.719Z,38.10
2019-03-23T12:09:55.955Z,37.00
2019-03-23T12:11:02.456Z,38.20
2019-03-23T12:11:54.681Z,37.00
2019-03-23T12:12:53.674Z,37.50
2019-03-23T12:13:53.663Z,36.50
2019-03-23T12:14:53.654Z,37.40
2019-03-23T12:15:53.756Z,36.90
2019-03-23T12:16:53.631Z,38.00
2019-03-23T12:17:53.615Z,38.10
2019-03-23T12:18:53.612Z,38.70
2019-03-23T12:19:53.595Z,39.10
2019-03-23T12:20:53.590Z,39.80
2019-03-23T12:21:53.712Z,39.80
2019-03-23T12:22:53.561Z,38.00
2019-03-23T12:23:53.555Z,38.20
2019-03-23T12:24:53.542Z,39.50
2019-03-23T12:25:53.533Z,40.40
2019-03-23T12:26:53.523Z,38.30
2019-03-23T12:27:53.558Z,38.60
2019-03-23T12:28:53.497Z,37.00
2019-03-23T12:29:53.486Z,37.80
2019-03-23T12:30:53.475Z,38.60
2019-03-23T12:31:53.466Z,37.60
2019-03-23T12:32:53.504Z,36.90
2019-03-23T12:33:53.447Z,37.90
2019-03-23T12:34:53.434Z,37.30
2019-03-23T12:35:53.422Z,36.00
2019-03-23T12:36:53.415Z,38.80
2019-03-23T12:37:53.434Z,40.10
2019-03-23T12:38:53.389Z,36.70
2019-03-23T12:39:53.387Z,38.40
2019-03-23T12:40:53.369Z,38.10
2019-03-23T12:41:53.362Z,36.50
2019-03-23T12:42:53.345Z,38.20
2019-03-23T12:43:53.388Z,37.50
2019-03-23T12:44:53.326Z,36.30
2019-03-23T12:45:53.316Z,37.90
2019-03-23T12:46:53.304Z,36.50
2019-03-23T12:47:53.295Z,38.20
2019-03-23T12:48:53.351Z,37.60
2019-03-23T12:49:53.276Z,37.10
2019-03-23T12:50:53.264Z,38.40
2019-03-23T12:51:53.253Z,37.60